createdAt,value
2022-08-07T00:01:43.981Z,45.49
2022-08-07T00:04:09.623Z,46.00
2022-08-07T00:06:40.955Z,45.86
2022-08-07T00:09:21.170Z,45.92
2022-08-07T00:11:55.821Z,46.68
2022-08-07T00:14:31.475Z,46.12
2022-08-07T00:17:02.470Z,45.99
2022-08-07T00:19:58.716Z,46.67
2022-08-07T00:22:24.399Z,47.21
2022-08-07T00:25:05.634Z,46.71
2022-08-07T00:27:52.868Z,46.73
2022-08-07T00:30:27.179Z,47.11
2022-08-07T00:32:57.417Z,47.24
2022-08-07T00:35:27.332Z,46.83
2022-08-07T00:37:59.666Z,47.03
2022-08-07T00:40:39.775Z,47.54
2022-08-07T00:43:59.338Z,46.57
2022-08-07T00:46:01.945Z,47.37
2022-08-07T00:48:32.352Z,47.46
2022-08-07T00:51:02.691Z,47.67
2022-08-07T00:53:44.171Z,48.06
2022-08-07T00:56:19.543Z,47.91
2022-08-07T00:58:49.660Z,47.96
2022-08-07T01:01:21.407Z,48.26
2022-08-07T01:03:55.739Z,48.65
2022-08-07T01:06:27.457Z,48.60
2022-08-07T01:08:58.278Z,48.83
2022-08-07T01:12:23.837Z,48.49
2022-08-07T01:14:16.733Z,48.02
2022-08-07T01:16:47.163Z,48.00
2022-08-07T01:20:16.658Z,47.99
2022-08-07T01:22:58.391Z,48.71
2022-08-07T01:25:54.870Z,48.97
2022-08-07T01:28:24.507Z,48.50
2022-08-07T01:30:55.085Z,48.87
2022-08-07T01:33:54.034Z,49.13
2022-08-07T01:36:15.069Z,49.45
2022-08-07T01:38:46.896Z,49.29
2022-08-07T01:41:26.081Z,48.53
2022-08-07T01:43:55.338Z,48.06
2022-08-07T01:46:24.707Z,48.60
2022-08-07T01:48:53.839Z,49.26
2022-08-07T01:52:01.807Z,49.81
2022-08-07T01:54:32.523Z,49.33
2022-08-07T01:57:08.424Z,49.86
2022-08-07T01:59:47.138Z,49.57
2022-08-07T02:02:32.949Z,49.33
2022-08-07T02:05:43.334Z,49.43
2022-08-07T02:08:17.134Z,49.36
2022-08-07T02:10:55.453Z,49.64
2022-08-07T02:13:56.851Z,48.74
2022-08-07T02:16:28.669Z,49.16
2022-08-07T02:19:05.398Z,49.21
2022-08-07T02:21:58.839Z,49.51
2022-08-07T02:24:30.019Z,49.69
2022-08-07T02:27:02.707Z,49.45
2022-08-07T02:29:36.715Z,49.18
2022-08-07T02:32:13.498Z,50.26
2022-08-07T02:34:49.012Z,50.39
2022-08-07T02:37:21.645Z,50.44
2022-08-07T02:40:02.305Z,50.57
2022-08-07T02:42:43.583Z,50.97
2022-08-07T02:45:58.333Z,51.34
2022-08-07T02:48:05.190Z,52.13
2022-08-07T02:50:45.219Z,51.59
2022-08-07T02:53:23.617Z,51.28
2022-08-07T02:56:03.998Z,52.32
2022-08-07T02:58:39.811Z,51.88
2022-08-07T03:01:18.536Z,51.08
2022-08-07T03:03:49.768Z,51.66
2022-08-07T03:06:26.018Z,51.77
2022-08-07T03:09:03.399Z,51.60
2022-08-07T03:11:38.928Z,52.21
2022-08-07T03:14:23.527Z,52.07
2022-08-07T03:16:53.674Z,52.35
2022-08-07T03:19:22.541Z,52.17
2022-08-07T03:21:52.255Z,52.33
2022-08-07T03:24:27.063Z,52.56
2022-08-07T03:27:01.223Z,53.04
2022-08-07T03:29:38.486Z,53.94
2022-08-07T03:32:17.080Z,53.71
2022-08-07T03:35:00.798Z,52.85
2022-08-07T03:37:46.141Z,52.36
2022-08-07T03:40:23.655Z,52.05
2022-08-07T03:42:59.847Z,52.21
2022-08-07T03:45:31.666Z,51.42
2022-08-07T03:48:01.166Z,51.22
2022-08-07T03:50:30.382Z,51.66
2022-08-07T03:53:00.379Z,51.83
2022-08-07T03:55:58.208Z,51.75
2022-08-07T03:59:07.202Z,51.90
2022-08-07T04:01:14.592Z,52.62
2022-08-07T04:03:49.713Z,52.48
2022-08-07T04:06:36.265Z,52.24
2022-08-07T04:09:08.436Z,52.48
2022-08-07T04:12:25.661Z,52.89
2022-08-07T04:14:38.441Z,53.57
2022-08-07T04:17:19.992Z,53.42
2022-08-07T04:19:54.248Z,52.96
2022-08-07T04:22:27.418Z,53.27
2022-08-07T04:25:00.861Z,53.40
2022-08-07T04:27:35.396Z,53.34
2022-08-07T04:30:13.448Z,53.62
2022-08-07T04:32:57.895Z,53.58
2022-08-07T04:35:27.457Z,52.20
2022-08-07T04:38:07.895Z,51.30
2022-08-07T04:40:51.473Z,51.40
2022-08-07T04:44:12.023Z,51.09
2022-08-07T04:46:34.709Z,50.64
2022-08-07T04:49:24.627Z,51.48
2022-08-07T04:52:10.463Z,52.13
2022-08-07T04:54:52.698Z,51.76
2022-08-07T04:58:29.219Z,51.99
2022-08-07T05:00:32.748Z,51.47
2022-08-07T05:03:17.134Z,51.02
2022-08-07T05:06:19.520Z,49.24
2022-08-07T05:09:00.637Z,45.37
2022-08-07T05:11:57.159Z,41.09
2022-08-07T05:14:53.406Z,38.72
2022-08-07T05:17:50.218Z,37.41
2022-08-07T05:20:15.848Z,37.26
2022-08-07T05:22:50.574Z,38.28
2022-08-07T05:25:36.005Z,39.19
2022-08-07T05:28:20.172Z,40.62
2022-08-07T05:30:54.395Z,41.62
2022-08-07T05:33:24.783Z,42.63
2022-08-07T05:35:56.199Z,42.84
2022-08-07T05:38:59.484Z,43.09
2022-08-07T05:41:16.730Z,43.68
2022-08-07T05:44:12.375Z,44.28
2022-08-07T05:46:41.441Z,43.33
2022-08-07T05:49:14.211Z,42.64
2022-08-07T05:51:46.348Z,42.68
2022-08-07T05:54:37.167Z,42.59
2022-08-07T05:57:09.117Z,42.41
2022-08-07T05:59:55.627Z,42.23
2022-08-07T06:02:31.103Z,42.42
2022-08-07T06:05:06.210Z,41.84
2022-08-07T06:08:29.932Z,41.67
2022-08-07T06:10:27.088Z,41.80
2022-08-07T06:12:56.125Z,42.08
2022-08-07T06:15:42.484Z,41.86
2022-08-07T06:18:14.120Z,41.38
2022-08-07T06:20:50.630Z,41.70
2022-08-07T06:24:38.508Z,41.96
2022-08-07T06:26:27.549Z,41.55
2022-08-07T06:28:59.543Z,41.57
2022-08-07T06:31:38.817Z,41.88
2022-08-07T06:34:19.639Z,41.96
2022-08-07T06:36:51.798Z,41.34
2022-08-07T06:40:15.817Z,41.98
2022-08-07T06:42:19.211Z,41.59
2022-08-07T06:44:51.049Z,41.23
2022-08-07T06:47:21.000Z,41.15
2022-08-07T06:49:51.751Z,41.53
2022-08-07T06:52:35.597Z,41.22
2022-08-07T06:55:33.997Z,40.90
2022-08-07T06:58:04.201Z,41.02
2022-08-07T07:00:39.170Z,41.20
2022-08-07T07:03:13.901Z,40.67
2022-08-07T07:06:05.180Z,40.38
2022-08-07T07:08:34.373Z,40.60
2022-08-07T07:11:13.498Z,41.05
2022-08-07T07:13:58.480Z,40.79
2022-08-07T07:16:49.532Z,40.24
2022-08-07T07:19:55.264Z,40.55
2022-08-07T07:22:36.972Z,41.13
2022-08-07T07:26:31.136Z,40.57
2022-08-07T07:28:03.293Z,40.68
2022-08-07T07:30:41.499Z,39.65
2022-08-07T07:33:15.123Z,40.21
2022-08-07T07:36:04.042Z,39.63
2022-08-07T07:38:35.989Z,39.69
2022-08-07T07:41:09.214Z,39.54
2022-08-07T07:43:48.046Z,39.57
2022-08-07T07:46:55.244Z,39.76
2022-08-07T07:50:33.699Z,39.52
2022-08-07T07:52:23.477Z,39.31
2022-08-07T07:54:52.375Z,38.97
2022-08-07T07:57:43.622Z,39.11
2022-08-07T08:00:29.046Z,39.06
2022-08-07T08:03:09.237Z,39.28
2022-08-07T08:05:53.985Z,38.95
2022-08-07T08:08:35.238Z,38.86
2022-08-07T08:11:08.583Z,38.63
2022-08-07T08:13:54.052Z,38.89
2022-08-07T08:16:35.145Z,38.12
2022-08-07T08:19:17.271Z,38.56
2022-08-07T08:22:17.177Z,37.59
2022-08-07T08:25:24.674Z,37.50
2022-08-07T08:28:03.542Z,37.49
2022-08-07T08:30:37.492Z,37.57
2022-08-07T08:33:23.715Z,35.83
2022-08-07T08:35:56.164Z,36.22
2022-08-07T08:38:30.092Z,34.90
2022-08-07T08:41:15.774Z,34.37
2022-08-07T08:43:59.205Z,34.60
2022-08-07T08:46:44.829Z,35.13
2022-08-07T08:49:33.466Z,34.02
2022-08-07T08:52:30.291Z,34.78
2022-08-07T08:55:07.790Z,34.54
2022-08-07T08:57:43.787Z,34.05
2022-08-07T09:00:16.717Z,33.52
2022-08-07T09:02:58.132Z,33.52
2022-08-07T09:05:44.463Z,33.16
2022-08-07T09:08:39.417Z,33.49
2022-08-07T09:11:24.324Z,33.17
2022-08-07T09:14:14.240Z,32.90
2022-08-07T09:17:03.383Z,32.19
2022-08-07T09:19:55.150Z,32.09
2022-08-07T09:24:30.370Z,32.03
2022-08-07T09:25:54.315Z,31.81
2022-08-07T09:30:01.672Z,31.76
2022-08-07T09:31:38.441Z,31.91
2022-08-07T09:34:17.574Z,31.64
2022-08-07T09:37:03.027Z,31.82
2022-08-07T09:39:54.869Z,31.01
2022-08-07T09:42:47.701Z,31.95
2022-08-07T09:47:51.424Z,31.26
2022-08-07T09:48:55.993Z,31.05
2022-08-07T09:52:16.729Z,30.59
2022-08-07T09:54:45.084Z,31.08
2022-08-07T09:58:04.255Z,30.79
2022-08-07T10:00:59.202Z,30.92
2022-08-07T10:04:14.819Z,31.29
2022-08-07T10:07:25.545Z,31.25
2022-08-07T10:10:21.333Z,31.00
2022-08-07T10:13:55.305Z,31.06
2022-08-07T10:16:43.187Z,31.36
2022-08-07T10:19:40.793Z,31.82
2022-08-07T10:22:36.838Z,31.93
2022-08-07T10:25:22.817Z,32.08
2022-08-07T10:28:17.073Z,31.77
2022-08-07T10:31:05.889Z,32.14
2022-08-07T10:34:17.843Z,32.41
2022-08-07T10:37:10.246Z,32.11
2022-08-07T10:40:05.166Z,32.09
2022-08-07T10:42:41.635Z,32.24
2022-08-07T10:45:44.964Z,31.69
2022-08-07T10:48:44.256Z,31.32
2022-08-07T10:51:39.255Z,31.03
2022-08-07T10:54:22.434Z,31.54
2022-08-07T10:57:11.387Z,31.13
2022-08-07T11:00:06.154Z,31.15
2022-08-07T11:02:49.257Z,30.84
2022-08-07T11:05:50.562Z,30.24
2022-08-07T11:08:33.251Z,31.02
2022-08-07T11:11:09.878Z,30.79
2022-08-07T11:14:45.254Z,30.48
2022-08-07T11:16:47.995Z,30.67
2022-08-07T11:19:34.100Z,30.91
2022-08-07T11:22:26.379Z,30.43
2022-08-07T11:25:10.262Z,30.61
2022-08-07T11:28:03.124Z,30.62
2022-08-07T11:30:43.854Z,30.48
2022-08-07T11:33:53.710Z,30.73
2022-08-07T11:36:36.879Z,30.44
2022-08-07T11:39:23.398Z,30.21
2022-08-07T11:42:03.209Z,30.25
2022-08-07T11:44:57.945Z,30.31
2022-08-07T11:47:55.963Z,30.70
2022-08-07T11:50:57.448Z,30.47
2022-08-07T11:54:01.390Z,30.33
2022-08-07T11:56:56.290Z,30.07
2022-08-07T12:00:10.897Z,30.18
2022-08-07T12:03:46.363Z,30.13
2022-08-07T12:06:37.694Z,30.28
2022-08-07T12:09:23.273Z,30.16
2022-08-07T12:12:10.813Z,30.42
2022-08-07T12:15:01.165Z,29.74
2022-08-07T12:17:58.780Z,30.29
2022-08-07T12:20:38.919Z,30.09
2022-08-07T12:23:37.380Z,30.03
2022-08-07T12:26:40.741Z,30.31
2022-08-07T12:29:37.826Z,30.13
2022-08-07T12:32:17.028Z,29.77
2022-08-07T12:34:49.576Z,29.63
2022-08-07T12:37:28.366Z,29.71
2022-08-07T12:40:46.363Z,29.95
2022-08-07T12:44:04.136Z,29.63
2022-08-07T12:46:25.992Z,29.46
2022-08-07T12:49:25.575Z,29.35
2022-08-07T12:52:17.916Z,29.53
2022-08-07T12:55:09.431Z,29.50
2022-08-07T12:58:01.021Z,29.73
2022-08-07T13:00:50.088Z,29.82
2022-08-07T13:04:13.679Z,29.51
2022-08-07T13:08:14.055Z,29.34
2022-08-07T13:10:37.897Z,29.00
2022-08-07T13:13:47.038Z,29.24
2022-08-07T13:16:32.105Z,29.36
2022-08-07T13:19:21.772Z,29.70
2022-08-07T13:22:12.642Z,28.97
2022-08-07T13:25:00.041Z,28.91
2022-08-07T13:28:11.161Z,28.85
2022-08-07T13:30:41.335Z,28.98
2022-08-07T13:34:32.828Z,29.18
2022-08-07T13:36:29.548Z,29.08
2022-08-07T13:39:13.047Z,29.17
2022-08-07T13:41:58.657Z,29.25
2022-08-07T13:44:34.694Z,28.73
2022-08-07T13:47:10.428Z,28.40
2022-08-07T13:50:34.065Z,28.21
2022-08-07T13:52:47.059Z,28.39
2022-08-07T13:55:26.239Z,28.60
2022-08-07T13:58:27.946Z,28.17
2022-08-07T14:01:09.102Z,28.42
2022-08-07T14:04:08.103Z,28.60
2022-08-07T14:06:38.726Z,28.22
2022-08-07T14:09:17.122Z,28.05
2022-08-07T14:12:10.475Z,28.08
2022-08-07T14:14:48.036Z,28.30
2022-08-07T14:18:12.311Z,28.01
2022-08-07T14:20:39.876Z,28.34
2022-08-07T14:23:31.396Z,28.21
2022-08-07T14:26:29.788Z,28.38
2022-08-07T14:29:08.859Z,28.35
2022-08-07T14:31:56.548Z,28.52
2022-08-07T14:34:30.265Z,28.51
2022-08-07T14:37:03.393Z,28.27
2022-08-07T14:40:17.707Z,28.52
2022-08-07T14:42:35.484Z,28.20
2022-08-07T14:45:26.352Z,28.02
2022-08-07T14:48:19.932Z,28.46
2022-08-07T14:50:52.295Z,28.36
2022-08-07T14:54:05.781Z,28.22
2022-08-07T14:59:13.727Z,28.71
2022-08-07T15:05:02.336Z,28.90
2022-08-07T15:07:47.166Z,29.08
2022-08-07T15:10:25.957Z,28.75
2022-08-07T15:13:05.580Z,28.82
2022-08-07T15:15:42.071Z,28.89
2022-08-07T15:18:28.681Z,28.39
2022-08-07T15:21:44.116Z,28.78
2022-08-07T15:25:14.125Z,28.84
2022-08-07T15:27:01.223Z,29.09
2022-08-07T15:30:09.797Z,29.07
2022-08-07T15:32:39.622Z,29.14
2022-08-07T15:36:00.301Z,29.75
2022-08-07T15:38:29.919Z,29.70
2022-08-07T15:41:23.865Z,29.58
2022-08-07T15:44:04.374Z,28.77
2022-08-07T15:46:51.790Z,28.87
2022-08-07T15:50:05.348Z,29.03
2022-08-07T15:52:30.830Z,29.02
2022-08-07T15:55:03.531Z,28.90
2022-08-07T15:57:39.994Z,28.77
2022-08-07T16:00:31.881Z,29.04
2022-08-07T16:03:22.132Z,28.98
2022-08-07T16:06:03.465Z,28.63
2022-08-07T16:08:38.505Z,28.71
2022-08-07T16:11:28.725Z,29.44
2022-08-07T16:14:17.225Z,29.82
2022-08-07T16:18:01.296Z,29.82
2022-08-07T16:21:43.726Z,29.34
2022-08-07T16:24:00.314Z,29.82
2022-08-07T16:26:59.279Z,29.77
2022-08-07T16:30:11.085Z,29.76
2022-08-07T16:32:53.909Z,30.03
2022-08-07T16:35:58.600Z,30.27
2022-08-07T16:39:00.719Z,30.91
2022-08-07T16:41:56.383Z,30.21
2022-08-07T16:45:14.814Z,30.78
2022-08-07T16:48:37.676Z,30.94
2022-08-07T16:52:01.681Z,30.89
2022-08-07T16:54:55.253Z,30.21
2022-08-07T16:58:01.788Z,30.37
2022-08-07T17:00:29.901Z,30.93
2022-08-07T17:03:19.624Z,31.03
2022-08-07T17:06:31.499Z,31.20
2022-08-07T17:10:05.193Z,31.23
2022-08-07T17:12:33.566Z,31.49
2022-08-07T17:15:17.466Z,31.52
2022-08-07T17:18:04.025Z,31.97
2022-08-07T17:20:37.732Z,31.57
2022-08-07T17:23:35.745Z,31.47
2022-08-07T17:26:22.600Z,31.75
2022-08-07T17:29:09.614Z,31.79
2022-08-07T17:32:09.492Z,31.71
2022-08-07T17:35:50.302Z,31.86
2022-08-07T17:38:06.896Z,32.05
2022-08-07T17:41:12.455Z,31.95
2022-08-07T17:44:08.368Z,31.54
2022-08-07T17:46:52.631Z,31.78
2022-08-07T17:49:26.132Z,32.14
2022-08-07T17:52:06.464Z,31.89
2022-08-07T17:54:54.588Z,32.19
2022-08-07T17:57:59.262Z,32.31
2022-08-07T18:00:34.280Z,32.39
2022-08-07T18:03:21.605Z,32.29
2022-08-07T18:06:06.698Z,32.38
2022-08-07T18:09:02.030Z,32.77
2022-08-07T18:12:07.997Z,33.06
2022-08-07T18:14:46.249Z,33.36
2022-08-07T18:18:47.317Z,33.21
2022-08-07T18:21:06.657Z,33.30
2022-08-07T18:23:42.958Z,33.36
2022-08-07T18:26:22.819Z,33.45
2022-08-07T18:30:04.533Z,33.28
2022-08-07T18:32:17.463Z,33.72
2022-08-07T18:35:10.589Z,33.55
2022-08-07T18:38:57.071Z,33.96
2022-08-07T18:41:16.741Z,34.27
2022-08-07T18:44:01.107Z,34.10
2022-08-07T18:46:42.874Z,34.42
2022-08-07T18:50:30.241Z,34.36
2022-08-07T18:53:01.411Z,34.49
2022-08-07T18:55:57.393Z,34.71
2022-08-07T18:58:52.002Z,35.38
2022-08-07T19:02:18.162Z,35.24
2022-08-07T19:04:55.871Z,35.45
2022-08-07T19:07:51.508Z,35.57
2022-08-07T19:10:32.674Z,35.77
2022-08-07T19:13:27.560Z,36.05
2022-08-07T19:17:00.667Z,36.25
2022-08-07T19:19:04.718Z,36.39
2022-08-07T19:21:56.850Z,36.73
2022-08-07T19:24:44.605Z,36.71
2022-08-07T19:28:30.306Z,36.53
2022-08-07T19:31:06.292Z,36.85
2022-08-07T19:33:10.088Z,37.16
2022-08-07T19:35:44.577Z,37.32
2022-08-07T19:38:17.936Z,37.33
2022-08-07T19:40:53.646Z,37.44
2022-08-07T19:43:45.192Z,37.52
2022-08-07T19:46:19.309Z,37.81
2022-08-07T19:48:54.753Z,37.28
2022-08-07T19:51:52.230Z,37.55
2022-08-07T19:54:32.313Z,37.55
2022-08-07T19:58:03.554Z,37.91
2022-08-07T20:00:08.882Z,37.86
2022-08-07T20:02:51.934Z,37.94
2022-08-07T20:05:28.088Z,38.25
2022-08-07T20:08:01.922Z,38.52
2022-08-07T20:10:54.498Z,38.28
2022-08-07T20:13:37.985Z,38.17
2022-08-07T20:16:15.821Z,38.42
2022-08-07T20:19:10.601Z,38.39
2022-08-07T20:21:42.186Z,38.83
2022-08-07T20:24:20.625Z,38.87
2022-08-07T20:26:54.745Z,38.52
2022-08-07T20:29:49.521Z,38.94
2022-08-07T20:32:25.632Z,38.60
2022-08-07T20:34:59.606Z,38.30
2022-08-07T20:37:33.715Z,38.20
2022-08-07T20:40:31.183Z,38.29
2022-08-07T20:42:57.753Z,39.01
2022-08-07T20:45:32.934Z,39.45
2022-08-07T20:48:30.087Z,39.68
2022-08-07T20:51:03.198Z,39.54
2022-08-07T20:54:04.544Z,39.95
2022-08-07T20:56:28.743Z,39.79
2022-08-07T20:59:01.932Z,40.16
2022-08-07T21:01:45.351Z,40.36
2022-08-07T21:04:22.415Z,40.18
2022-08-07T21:06:56.699Z,40.48
2022-08-07T21:09:53.174Z,40.17
2022-08-07T21:12:29.148Z,40.31
2022-08-07T21:15:06.459Z,39.91
2022-08-07T21:18:03.075Z,39.90
2022-08-07T21:20:33.489Z,39.92
2022-08-07T21:23:09.331Z,40.15
2022-08-07T21:26:04.561Z,39.78
2022-08-07T21:28:48.910Z,39.64
2022-08-07T21:31:49.699Z,40.04
2022-08-07T21:34:33.722Z,40.17
2022-08-07T21:37:09.936Z,40.21
2022-08-07T21:39:55.212Z,39.68
2022-08-07T21:42:48.022Z,39.83
2022-08-07T21:46:07.868Z,40.33
2022-08-07T21:48:29.225Z,40.20
2022-08-07T21:51:19.938Z,40.57
2022-08-07T21:53:59.619Z,40.38
2022-08-07T21:56:49.305Z,40.72
2022-08-07T22:00:04.520Z,40.84
2022-08-07T22:02:41.388Z,40.36
2022-08-07T22:05:21.778Z,40.25
2022-08-07T22:08:10.399Z,40.32
2022-08-07T22:10:42.359Z,40.57
2022-08-07T22:13:15.942Z,40.74
2022-08-07T22:16:40.197Z,41.10
2022-08-07T22:18:52.750Z,40.93
2022-08-07T22:22:04.834Z,41.00
2022-08-07T22:24:23.769Z,41.30
2022-08-07T22:27:10.325Z,41.48
2022-08-07T22:29:53.159Z,41.35
2022-08-07T22:32:35.039Z,41.14
2022-08-07T22:35:07.833Z,41.61
2022-08-07T22:38:03.211Z,41.73
2022-08-07T22:40:57.882Z,41.58
2022-08-07T22:43:37.256Z,41.58
2022-08-07T22:47:01.972Z,41.29
2022-08-07T22:50:28.798Z,41.65
2022-08-07T22:54:06.563Z,41.77
2022-08-07T22:56:31.005Z,41.43
2022-08-07T22:59:49.819Z,41.91
2022-08-07T23:02:48.040Z,41.96
2022-08-07T23:06:10.292Z,42.02
2022-08-07T23:10:05.864Z,42.15
2022-08-07T23:12:10.269Z,42.40
2022-08-07T23:15:11.998Z,42.78
2022-08-07T23:18:27.142Z,43.04
2022-08-07T23:21:30.398Z,42.63
2022-08-07T23:24:34.371Z,42.67
2022-08-07T23:27:35.824Z,42.38
2022-08-07T23:30:42.594Z,42.10
2022-08-07T23:34:33.888Z,42.22
2022-08-07T23:37:17.832Z,42.01
2022-08-07T23:40:01.539Z,42.42
2022-08-07T23:43:01.739Z,42.26
2022-08-07T23:46:03.072Z,42.20
2022-08-07T23:49:15.351Z,42.44
2022-08-07T23:52:59.825Z,42.77
2022-08-07T23:54:52.779Z,42.42
2022-08-07T23:57:37.126Z,42.55
